createdAt,value
2023-01-30T00:00:47.193Z,28.45
2023-01-30T00:03:14.955Z,28.14
2023-01-30T00:05:42.660Z,28.28
2023-01-30T00:08:10.395Z,28.20
2023-01-30T00:10:38.125Z,28.46
2023-01-30T00:13:05.899Z,28.39
2023-01-30T00:15:33.611Z,28.16
2023-01-30T00:18:01.372Z,28.39
2023-01-30T00:20:29.125Z,28.29
2023-01-30T00:23:01.019Z,28.48
2023-01-30T00:25:29.201Z,28.66
2023-01-30T00:27:57.241Z,28.66
2023-01-30T00:30:25.108Z,28.50
2023-01-30T00:32:53.098Z,28.50
2023-01-30T00:35:20.818Z,28.63
2023-01-30T00:37:48.596Z,28.08
2023-01-30T00:40:16.895Z,28.59
2023-01-30T00:43:02.228Z,28.70
2023-01-30T00:45:47.623Z,28.23
2023-01-30T00:48:15.373Z,28.52
2023-01-30T00:50:46.245Z,28.83
2023-01-30T00:53:14.054Z,28.79
2023-01-30T00:55:42.016Z,28.60
2023-01-30T00:58:09.769Z,28.83
2023-01-30T01:00:37.510Z,28.66
2023-01-30T01:03:05.319Z,28.56
2023-01-30T01:05:33.137Z,28.93
2023-01-30T01:08:00.868Z,29.01
2023-01-30T01:10:28.661Z,29.10
2023-01-30T01:12:56.398Z,29.22
2023-01-30T01:15:24.161Z,29.21
2023-01-30T01:17:51.940Z,28.96
2023-01-30T01:20:19.820Z,29.05
2023-01-30T01:22:50.309Z,29.05
2023-01-30T01:25:19.610Z,29.23
2023-01-30T01:27:47.561Z,29.34
2023-01-30T01:33:25.238Z,29.37
2023-01-30T01:35:53.138Z,29.11
2023-01-30T01:38:21.055Z,29.24
2023-01-30T01:41:03.086Z,29.06
2023-01-30T01:43:30.994Z,29.12
2023-01-30T01:45:58.992Z,29.18
2023-01-30T01:48:27.015Z,28.89
2023-01-30T01:50:54.941Z,29.08
2023-01-30T01:53:22.871Z,28.88
2023-01-30T01:55:50.715Z,29.01
2023-01-30T01:58:18.605Z,28.90
2023-01-30T02:00:46.486Z,29.15
2023-01-30T02:03:14.387Z,28.74
2023-01-30T02:05:42.315Z,28.70
2023-01-30T02:08:10.188Z,29.03
2023-01-30T02:10:38.145Z,28.84
2023-01-30T02:13:06.084Z,28.57
2023-01-30T02:15:33.961Z,29.02
2023-01-30T02:18:01.937Z,28.82
2023-01-30T02:20:29.804Z,29.06
2023-01-30T02:22:57.737Z,28.79
2023-01-30T02:25:25.626Z,28.81
2023-01-30T02:27:53.548Z,29.53
2023-01-30T02:30:21.474Z,29.04
2023-01-30T02:32:49.370Z,28.82
2023-01-30T02:35:17.582Z,29.30
2023-01-30T02:37:45.593Z,29.25
2023-01-30T02:40:13.523Z,28.89
2023-01-30T02:42:41.369Z,29.13
2023-01-30T02:45:09.248Z,29.40
2023-01-30T02:47:37.268Z,29.22
2023-01-30T02:50:05.151Z,29.11
2023-01-30T02:52:33.018Z,28.95
2023-01-30T02:55:02.688Z,28.97
2023-01-30T02:57:30.641Z,28.85
2023-01-30T02:59:58.571Z,28.91
2023-01-30T03:02:26.471Z,29.06
2023-01-30T03:04:54.584Z,29.05
2023-01-30T03:07:22.488Z,28.81
2023-01-30T03:09:50.897Z,28.93
2023-01-30T03:12:19.121Z,29.04
2023-01-30T03:14:47.250Z,28.55
2023-01-30T03:17:15.215Z,28.99
2023-01-30T03:19:43.117Z,29.23
2023-01-30T03:22:11.052Z,29.26
2023-01-30T03:24:38.890Z,28.98
2023-01-30T03:27:06.815Z,29.13
2023-01-30T03:29:34.967Z,29.04
2023-01-30T03:32:03.112Z,29.24
2023-01-30T03:34:31.053Z,29.09
2023-01-30T03:36:58.953Z,28.97
2023-01-30T03:39:26.797Z,29.37
2023-01-30T03:41:54.671Z,29.33
2023-01-30T03:44:22.516Z,29.41
2023-01-30T03:46:50.411Z,29.62
2023-01-30T03:49:18.317Z,29.54
2023-01-30T03:51:46.232Z,29.58
2023-01-30T03:54:14.123Z,29.74
2023-01-30T03:56:42.024Z,29.96
2023-01-30T03:59:09.882Z,30.11
2023-01-30T04:01:37.839Z,29.86
2023-01-30T04:04:05.824Z,29.51
2023-01-30T04:06:35.712Z,29.34
2023-01-30T04:09:04.221Z,29.57
2023-01-30T04:11:32.047Z,29.55
2023-01-30T04:13:59.889Z,29.61
2023-01-30T04:16:27.764Z,29.74
2023-01-30T04:18:55.717Z,29.42
2023-01-30T04:21:23.626Z,29.76
2023-01-30T04:23:51.565Z,29.36
2023-01-30T04:26:19.522Z,29.45
2023-01-30T04:28:47.476Z,29.59
2023-01-30T04:31:15.422Z,29.28
2023-01-30T04:33:43.343Z,29.44
2023-01-30T04:36:11.242Z,29.46
2023-01-30T04:38:39.131Z,29.87
2023-01-30T04:41:07.081Z,29.78
2023-01-30T04:43:35.046Z,29.59
2023-01-30T04:46:02.913Z,29.51
2023-01-30T04:48:30.854Z,29.64
2023-01-30T04:50:58.814Z,29.75
2023-01-30T04:53:26.677Z,29.72
2023-01-30T04:55:54.508Z,29.69
2023-01-30T04:58:22.367Z,29.70
2023-01-30T05:00:50.235Z,29.63
2023-01-30T05:03:18.113Z,29.63
2023-01-30T05:05:46.052Z,29.29
2023-01-30T05:08:13.969Z,29.60
2023-01-30T05:10:41.926Z,29.29
2023-01-30T05:13:09.932Z,29.54
2023-01-30T05:15:37.786Z,29.13
2023-01-30T05:18:05.639Z,29.26
2023-01-30T05:20:33.512Z,29.40
2023-01-30T05:23:01.363Z,29.44
2023-01-30T05:25:29.250Z,29.76
2023-01-30T05:27:57.309Z,29.43
2023-01-30T05:30:25.246Z,29.74
2023-01-30T05:32:53.115Z,29.43
2023-01-30T05:35:21.055Z,29.34
2023-01-30T05:37:48.886Z,29.37
2023-01-30T05:40:16.862Z,29.46
2023-01-30T05:42:44.812Z,29.70
2023-01-30T05:45:12.677Z,29.29
2023-01-30T05:47:40.603Z,29.40
2023-01-30T05:50:08.443Z,29.50
2023-01-30T05:52:36.316Z,29.35
2023-01-30T05:55:04.293Z,29.75
2023-01-30T05:57:32.189Z,29.57
2023-01-30T06:00:00.056Z,29.59
2023-01-30T06:02:27.995Z,29.80
2023-01-30T06:04:55.879Z,29.45
2023-01-30T06:07:23.797Z,29.41
2023-01-30T06:09:51.694Z,29.71
2023-01-30T06:12:19.571Z,29.74
2023-01-30T06:14:47.415Z,29.63
2023-01-30T06:17:15.243Z,29.63
2023-01-30T06:19:43.220Z,29.31
2023-01-30T06:22:11.102Z,29.36
2023-01-30T06:24:38.974Z,29.67
2023-01-30T06:27:06.919Z,29.66
2023-01-30T06:29:34.833Z,29.31
2023-01-30T06:32:02.680Z,29.60
2023-01-30T06:34:30.518Z,29.64
2023-01-30T06:36:58.345Z,29.81
2023-01-30T06:39:26.237Z,29.87
2023-01-30T06:41:54.072Z,30.21
2023-01-30T06:44:21.923Z,29.99
2023-01-30T06:46:49.782Z,30.21
2023-01-30T06:49:17.647Z,30.10
2023-01-30T06:51:45.564Z,30.12
2023-01-30T06:54:13.422Z,29.82
2023-01-30T06:56:41.255Z,29.87
2023-01-30T06:59:09.079Z,30.37
2023-01-30T07:01:37.463Z,29.96
2023-01-30T07:04:05.390Z,29.76
2023-01-30T07:06:33.304Z,29.81
2023-01-30T07:09:01.199Z,29.98
2023-01-30T07:11:29.040Z,29.78
2023-01-30T07:13:56.903Z,29.62
2023-01-30T07:16:29.248Z,30.39
2023-01-30T07:18:58.663Z,30.18
2023-01-30T07:21:27.320Z,29.87
2023-01-30T07:23:55.231Z,29.78
2023-01-30T07:26:23.186Z,29.79
2023-01-30T07:28:51.103Z,29.96
2023-01-30T07:31:19.080Z,29.55
2023-01-30T07:33:47.027Z,30.09
2023-01-30T07:36:14.871Z,30.15
2023-01-30T07:38:42.789Z,29.62
2023-01-30T07:41:10.652Z,29.75
2023-01-30T07:43:38.503Z,29.58
2023-01-30T07:46:06.337Z,29.87
2023-01-30T07:48:34.229Z,29.90
2023-01-30T07:51:02.103Z,29.88
2023-01-30T07:53:30.030Z,29.85
2023-01-30T07:55:57.855Z,30.02
2023-01-30T07:58:25.786Z,29.67
2023-01-30T08:00:53.699Z,29.93
2023-01-30T08:03:21.657Z,30.01
2023-01-30T08:05:50.159Z,29.55
2023-01-30T08:08:18.052Z,29.85
2023-01-30T08:10:45.957Z,29.53
2023-01-30T08:13:13.813Z,29.24
2023-01-30T08:15:41.688Z,29.57
2023-01-30T08:18:09.561Z,29.77
2023-01-30T08:20:37.479Z,29.72
2023-01-30T08:23:05.405Z,29.73
2023-01-30T08:25:33.407Z,29.93
2023-01-30T08:28:01.428Z,29.94
2023-01-30T08:30:30.503Z,29.72
2023-01-30T08:32:58.598Z,29.81
2023-01-30T08:35:26.529Z,30.19
2023-01-30T08:37:54.400Z,29.39
2023-01-30T08:40:22.251Z,29.34
2023-01-30T08:42:50.151Z,29.81
2023-01-30T08:45:18.134Z,29.87
2023-01-30T08:47:46.024Z,29.42
2023-01-30T08:50:13.937Z,29.98
2023-01-30T08:52:41.756Z,29.84
2023-01-30T08:55:09.675Z,30.00
2023-01-30T08:57:37.582Z,29.65
2023-01-30T09:00:05.603Z,30.15
2023-01-30T09:02:33.620Z,29.71
2023-01-30T09:05:01.930Z,29.62
2023-01-30T09:07:30.079Z,29.69
2023-01-30T09:09:58.185Z,29.84
2023-01-30T09:12:26.172Z,29.84
2023-01-30T09:14:55.762Z,29.92
2023-01-30T09:17:23.814Z,29.91
2023-01-30T09:19:51.647Z,29.62
2023-01-30T09:22:19.549Z,30.21
2023-01-30T09:24:47.462Z,30.16
2023-01-30T09:27:15.345Z,30.11
2023-01-30T09:29:44.427Z,29.70
2023-01-30T09:32:13.360Z,30.00
2023-01-30T09:34:41.207Z,30.05
2023-01-30T09:37:09.083Z,30.01
2023-01-30T09:39:36.984Z,30.28
2023-01-30T09:42:04.840Z,30.21
2023-01-30T09:44:33.041Z,30.27
2023-01-30T09:47:03.002Z,30.16
2023-01-30T09:49:30.860Z,29.96
2023-01-30T09:51:58.906Z,30.40
2023-01-30T09:54:26.904Z,29.95
2023-01-30T09:56:54.824Z,30.27
2023-01-30T09:59:22.664Z,30.30
2023-01-30T10:01:50.563Z,30.17
2023-01-30T10:04:18.418Z,30.26
2023-01-30T10:06:46.352Z,29.69
2023-01-30T10:09:14.233Z,30.03
2023-01-30T10:11:42.259Z,29.91
2023-01-30T10:14:10.174Z,29.79
2023-01-30T10:16:39.179Z,29.78
2023-01-30T10:19:07.056Z,30.14
2023-01-30T10:21:34.992Z,30.30
2023-01-30T10:24:02.965Z,29.86
2023-01-30T10:26:31.363Z,30.09
2023-01-30T10:29:07.254Z,29.90
2023-01-30T10:31:36.064Z,29.74
2023-01-30T10:34:04.091Z,29.87
2023-01-30T10:36:31.960Z,29.79
2023-01-30T10:38:59.908Z,29.69
2023-01-30T10:41:27.815Z,29.89
2023-01-30T10:43:55.786Z,30.04
2023-01-30T10:46:23.679Z,29.76
2023-01-30T10:48:51.586Z,30.22
2023-01-30T10:51:19.864Z,30.09
2023-01-30T10:53:47.752Z,30.01
2023-01-30T10:56:15.657Z,29.59
2023-01-30T10:58:43.585Z,29.94
2023-01-30T11:01:11.426Z,29.70
2023-01-30T11:03:39.414Z,29.80
2023-01-30T11:06:07.275Z,29.65
2023-01-30T11:08:35.252Z,29.98
2023-01-30T11:11:03.152Z,30.02
2023-01-30T11:13:31.432Z,30.24
2023-01-30T11:15:59.408Z,29.62
2023-01-30T11:19:18.190Z,30.05
2023-01-30T11:21:15.229Z,30.24
2023-01-30T11:23:43.123Z,29.86
2023-01-30T11:26:12.007Z,29.87
2023-01-30T11:28:39.937Z,29.60
2023-01-30T11:31:08.970Z,30.28
2023-01-30T11:33:36.829Z,30.04
2023-01-30T11:36:05.507Z,30.16
2023-01-30T11:38:33.461Z,30.02
2023-01-30T11:41:01.335Z,29.67
2023-01-30T11:43:29.255Z,29.90
2023-01-30T11:45:57.219Z,30.04
2023-01-30T11:49:01.642Z,30.20
2023-01-30T11:51:13.559Z,29.83
2023-01-30T11:53:41.439Z,30.23
2023-01-30T11:56:10.635Z,29.73
2023-01-30T11:58:40.110Z,30.24
2023-01-30T12:01:08.033Z,30.09
2023-01-30T12:03:35.863Z,30.22
2023-01-30T12:06:03.835Z,30.66
2023-01-30T12:08:41.752Z,30.18
2023-01-30T12:11:10.173Z,30.27
2023-01-30T12:13:38.023Z,30.11
2023-01-30T12:16:05.992Z,30.54
2023-01-30T12:18:33.866Z,30.50
2023-01-30T12:21:01.736Z,30.69
2023-01-30T12:23:29.586Z,30.09
2023-01-30T12:25:57.554Z,30.40
2023-01-30T12:28:26.641Z,30.42
2023-01-30T12:30:55.102Z,30.30
2023-01-30T12:33:23.007Z,30.25
2023-01-30T12:35:50.988Z,30.37
2023-01-30T12:38:19.000Z,30.40
2023-01-30T12:40:47.238Z,29.93
2023-01-30T12:43:15.295Z,30.36
2023-01-30T12:45:43.208Z,30.23
2023-01-30T12:48:11.223Z,30.37
2023-01-30T12:50:39.103Z,30.21
2023-01-30T12:53:06.973Z,30.10
2023-01-30T12:55:34.945Z,30.08
2023-01-30T12:58:02.869Z,30.07
2023-01-30T13:00:30.866Z,30.37
2023-01-30T13:02:58.753Z,30.42
2023-01-30T13:05:26.697Z,30.06
2023-01-30T13:07:54.608Z,30.29
2023-01-30T13:10:22.887Z,30.00
2023-01-30T13:12:50.952Z,30.00
2023-01-30T13:15:18.828Z,29.64
2023-01-30T13:17:46.740Z,29.75
2023-01-30T13:20:15.511Z,29.82
2023-01-30T13:22:43.518Z,30.44
2023-01-30T13:25:11.423Z,30.23
2023-01-30T13:27:39.393Z,29.88
2023-01-30T13:30:07.292Z,30.23
2023-01-30T13:32:35.298Z,30.09
2023-01-30T13:35:03.195Z,30.07
2023-01-30T13:37:31.059Z,29.98
2023-01-30T13:39:59.463Z,30.02
2023-01-30T13:42:27.344Z,29.99
2023-01-30T13:44:55.348Z,30.25
2023-01-30T13:47:23.412Z,29.99
2023-01-30T13:49:51.275Z,30.34
2023-01-30T13:52:19.232Z,30.30
2023-01-30T13:54:47.202Z,30.22
2023-01-30T13:57:15.216Z,30.34
2023-01-30T13:59:43.122Z,30.35
2023-01-30T14:02:11.132Z,30.33
2023-01-30T14:04:39.587Z,29.97
2023-01-30T14:07:07.610Z,29.84
2023-01-30T14:09:35.428Z,30.17
2023-01-30T14:12:04.077Z,30.21
2023-01-30T14:14:32.008Z,30.12
2023-01-30T14:17:00.061Z,29.97
2023-01-30T14:19:27.988Z,30.14
2023-01-30T14:21:55.854Z,30.31
2023-01-30T14:24:25.125Z,30.35
2023-01-30T14:26:53.323Z,30.56
2023-01-30T14:29:21.239Z,30.19
2023-01-30T14:31:49.667Z,30.36
2023-01-30T14:34:17.669Z,30.45
2023-01-30T14:36:45.649Z,30.42
2023-01-30T14:39:13.474Z,30.41
2023-01-30T14:41:41.367Z,30.58
2023-01-30T14:44:09.201Z,30.37
2023-01-30T14:46:37.137Z,30.22
2023-01-30T14:49:05.821Z,30.34
2023-01-30T14:51:33.690Z,30.58
2023-01-30T14:54:01.766Z,30.35
2023-01-30T14:56:29.665Z,30.29
2023-01-30T14:58:57.493Z,30.24
2023-01-30T15:01:25.409Z,29.92
2023-01-30T15:03:53.340Z,29.92
2023-01-30T15:06:21.233Z,29.50
2023-01-30T15:08:49.121Z,26.16
2023-01-30T15:11:17.158Z,18.69
2023-01-30T15:13:45.054Z,14.91
2023-01-30T15:16:12.979Z,13.25
2023-01-30T15:18:40.866Z,12.41
2023-01-30T15:21:08.793Z,10.90
2023-01-30T15:23:36.792Z,10.01
2023-01-30T15:26:04.689Z,9.07
2023-01-30T15:28:32.556Z,8.39
2023-01-30T15:31:00.661Z,7.63
2023-01-30T15:33:31.950Z,6.88
2023-01-30T15:36:00.308Z,6.66
2023-01-30T15:38:28.188Z,6.59
2023-01-30T15:40:56.123Z,6.12
2023-01-30T15:43:24.060Z,5.88
2023-01-30T15:45:52.007Z,5.40
2023-01-30T15:48:19.909Z,5.76
2023-01-30T15:50:47.794Z,5.30
2023-01-30T15:53:15.738Z,5.43
2023-01-30T15:58:18.685Z,4.86
2023-01-30T16:00:46.808Z,5.54
2023-01-30T16:03:14.868Z,5.42
2023-01-30T16:05:42.771Z,5.69
2023-01-30T16:08:10.682Z,6.24
2023-01-30T16:10:38.523Z,6.02
2023-01-30T16:13:06.428Z,6.48
2023-01-30T16:15:34.746Z,7.22
2023-01-30T16:18:05.523Z,7.59
2023-01-30T16:20:33.930Z,8.74
2023-01-30T16:23:02.336Z,9.75
2023-01-30T16:25:34.593Z,10.19
2023-01-30T16:28:02.571Z,10.99
2023-01-30T16:30:30.675Z,11.75
2023-01-30T16:32:58.644Z,12.86
2023-01-30T16:35:28.085Z,13.54
2023-01-30T16:37:56.977Z,13.99
2023-01-30T16:40:24.945Z,14.72
2023-01-30T16:42:55.059Z,15.53
2023-01-30T16:45:28.056Z,16.06
2023-01-30T16:47:57.460Z,17.05
2023-01-30T16:50:25.464Z,17.44
2023-01-30T16:52:53.579Z,18.02
2023-01-30T16:55:21.560Z,18.48
2023-01-30T16:57:49.459Z,19.20
2023-01-30T17:00:17.750Z,19.72
2023-01-30T17:02:45.978Z,19.99
2023-01-30T17:05:13.927Z,20.17
2023-01-30T17:07:42.006Z,21.05
2023-01-30T17:10:09.862Z,20.81
2023-01-30T17:12:38.281Z,19.20
2023-01-30T17:15:06.149Z,17.42
2023-01-30T17:17:34.105Z,14.96
2023-01-30T17:20:02.242Z,13.01
2023-01-30T17:22:30.264Z,11.52
2023-01-30T17:24:58.697Z,11.11
2023-01-30T17:27:26.616Z,10.30
2023-01-30T17:29:54.601Z,9.31
2023-01-30T17:32:22.526Z,8.20
2023-01-30T17:34:50.524Z,7.69
2023-01-30T17:37:18.484Z,7.34
2023-01-30T17:39:46.346Z,7.23
2023-01-30T17:42:14.644Z,6.92
2023-01-30T17:44:42.530Z,6.82
2023-01-30T17:47:10.392Z,6.75
2023-01-30T17:49:38.622Z,7.08
2023-01-30T17:52:07.133Z,6.96
2023-01-30T17:54:35.090Z,7.95
2023-01-30T17:57:02.997Z,8.44
2023-01-30T17:59:31.316Z,9.17
2023-01-30T18:01:59.301Z,9.93
2023-01-30T18:04:27.220Z,10.80
2023-01-30T18:06:56.010Z,11.60
2023-01-30T18:09:23.959Z,12.44
2023-01-30T18:11:52.042Z,13.11
2023-01-30T18:14:20.265Z,13.39
2023-01-30T18:16:49.256Z,14.42
2023-01-30T18:19:17.940Z,15.35
2023-01-30T18:21:45.970Z,15.61
2023-01-30T18:24:14.045Z,16.47
2023-01-30T18:26:42.083Z,17.27
2023-01-30T18:29:10.392Z,17.50
2023-01-30T18:31:38.659Z,18.45
2023-01-30T18:34:07.306Z,18.52
2023-01-30T18:36:35.179Z,19.46
2023-01-30T18:39:03.029Z,20.15
2023-01-30T18:41:30.910Z,20.26
2023-01-30T18:43:58.781Z,21.04
2023-01-30T18:46:26.721Z,21.32
2023-01-30T18:48:54.695Z,21.59
2023-01-30T18:51:22.561Z,22.33
2023-01-30T18:53:50.520Z,22.67
2023-01-30T18:56:18.454Z,23.12
2023-01-30T18:58:46.325Z,23.19
2023-01-30T19:01:14.251Z,23.35
2023-01-30T19:03:42.211Z,23.38
2023-01-30T19:06:11.746Z,23.78
2023-01-30T19:08:39.679Z,23.94
2023-01-30T19:11:28.191Z,24.11
2023-01-30T19:13:55.003Z,24.14
2023-01-30T19:16:23.026Z,24.47
2023-01-30T19:18:50.931Z,23.15
2023-01-30T19:21:18.901Z,17.08
2023-01-30T19:23:46.852Z,13.38
2023-01-30T19:26:14.797Z,11.73
2023-01-30T19:28:44.730Z,10.91
2023-01-30T19:31:13.942Z,10.27
2023-01-30T19:33:42.011Z,9.45
2023-01-30T19:36:09.966Z,8.67
2023-01-30T19:38:37.901Z,8.22
2023-01-30T19:41:05.881Z,7.64
2023-01-30T19:43:33.760Z,7.18
2023-01-30T19:46:01.811Z,7.04
2023-01-30T19:48:29.878Z,7.21
2023-01-30T19:50:58.231Z,7.79
2023-01-30T19:53:26.330Z,8.51
2023-01-30T19:55:54.632Z,9.04
2023-01-30T19:58:22.784Z,9.81
2023-01-30T20:00:50.662Z,10.22
2023-01-30T20:03:18.687Z,11.49
2023-01-30T20:05:46.605Z,12.12
2023-01-30T20:08:31.436Z,12.64
2023-01-30T20:10:59.798Z,13.82
2023-01-30T20:13:27.778Z,14.59
2023-01-30T20:15:56.811Z,15.15
2023-01-30T20:18:24.771Z,15.59
2023-01-30T20:20:52.679Z,15.99
2023-01-30T20:23:22.197Z,17.18
2023-01-30T20:25:50.061Z,17.78
2023-01-30T20:28:18.542Z,18.07
2023-01-30T20:30:46.592Z,18.73
2023-01-30T20:33:14.508Z,19.32
2023-01-30T20:35:42.396Z,20.07
2023-01-30T20:38:11.684Z,20.19
2023-01-30T20:40:39.780Z,20.84
2023-01-30T20:43:07.714Z,21.19
2023-01-30T20:45:35.735Z,21.37
2023-01-30T20:48:03.790Z,21.99
2023-01-30T20:50:32.018Z,22.33
2023-01-30T20:52:59.958Z,22.58
2023-01-30T20:55:27.942Z,22.82
2023-01-30T20:57:55.897Z,23.30
2023-01-30T21:00:23.745Z,23.51
2023-01-30T21:02:51.657Z,23.56
2023-01-30T21:05:20.574Z,23.81
2023-01-30T21:07:48.701Z,23.96
2023-01-30T21:10:16.561Z,24.39
2023-01-30T21:12:44.533Z,24.41
2023-01-30T21:15:12.648Z,24.82
2023-01-30T21:17:40.763Z,25.21
2023-01-30T21:20:08.689Z,25.17
2023-01-30T21:22:36.974Z,25.66
2023-01-30T21:25:05.616Z,25.53
2023-01-30T21:27:33.623Z,25.11
2023-01-30T21:30:01.640Z,25.15
2023-01-30T21:32:29.621Z,25.40
2023-01-30T21:34:57.485Z,25.18
2023-01-30T21:37:42.567Z,25.40
2023-01-30T21:40:28.058Z,25.64
2023-01-30T21:43:13.512Z,25.86
2023-01-30T21:45:41.514Z,25.44
2023-01-30T21:48:09.439Z,26.04
2023-01-30T21:50:37.437Z,26.06
2023-01-30T21:53:05.308Z,25.97
2023-01-30T21:55:33.271Z,26.21
2023-01-30T21:58:01.217Z,26.14
2023-01-30T22:00:29.193Z,26.18
2023-01-30T22:02:57.193Z,26.36
2023-01-30T22:05:25.172Z,26.44
2023-01-30T22:07:52.991Z,26.26
2023-01-30T22:10:21.176Z,26.62
2023-01-30T22:12:49.303Z,26.35
2023-01-30T22:15:17.753Z,26.70
2023-01-30T22:17:46.855Z,26.80
2023-01-30T22:20:14.696Z,26.96
2023-01-30T22:22:42.922Z,26.89
2023-01-30T22:25:10.875Z,27.05
2023-01-30T22:27:39.554Z,27.23
2023-01-30T22:30:07.641Z,27.14
2023-01-30T22:32:36.180Z,27.45
2023-01-30T22:35:04.135Z,27.60
2023-01-30T22:37:32.054Z,27.43
2023-01-30T22:39:59.884Z,27.70
2023-01-30T22:42:27.827Z,27.58
2023-01-30T22:44:55.687Z,27.88
2023-01-30T22:47:24.093Z,27.66
2023-01-30T22:49:51.969Z,27.94
2023-01-30T22:52:19.931Z,28.07
2023-01-30T22:54:47.821Z,27.98
2023-01-30T22:57:15.709Z,27.81
2023-01-30T22:59:43.665Z,28.07
2023-01-30T23:02:12.318Z,27.98
2023-01-30T23:04:40.264Z,28.30
2023-01-30T23:07:08.195Z,28.20
2023-01-30T23:09:36.124Z,28.21
2023-01-30T23:12:21.481Z,28.28
2023-01-30T23:14:49.377Z,28.36
2023-01-30T23:17:34.625Z,28.52
2023-01-30T23:20:02.570Z,28.23
2023-01-30T23:22:30.520Z,28.24
2023-01-30T23:24:58.444Z,28.51
2023-01-30T23:27:26.378Z,28.12
2023-01-30T23:29:54.258Z,28.64
2023-01-30T23:32:23.694Z,28.32
2023-01-30T23:34:51.649Z,28.49
2023-01-30T23:37:40.044Z,28.53
2023-01-30T23:40:08.133Z,28.43
2023-01-30T23:42:36.464Z,28.78
2023-01-30T23:45:04.524Z,28.23
2023-01-30T23:47:32.412Z,28.60
2023-01-30T23:50:00.325Z,28.69
2023-01-30T23:52:29.140Z,28.71
2023-01-30T23:54:57.097Z,28.99
2023-01-30T23:57:24.941Z,28.88
2023-01-30T23:59:52.855Z,28.98
